Time;durP1;ratioP1;P1;durP2;ratioP2;P2;SDS_P1;SDS_P2;PMS_P1;PMS_P2;Temp;Humidity;BMP_temperature;BMP_pressure;BME280_temperature;BME280_humidity;BME280_pressure;Samples;Min_cycle;Max_cycle;Signal;HPM_P1;HPM_P2
2023/02/22 00:02:27;;;;;;;26.80;12.20;;;8.40;99.90;;;;;;5097172;28;20205;-88
2023/02/22 00:04:54;;;;;;;26.40;12.70;;;8.40;99.90;;;;;;5097675;28;20221;-87
2023/02/22 00:07:23;;;;;;;25.90;11.97;;;8.30;99.90;;;;;;5096951;28;20679;-87
2023/02/22 00:09:50;;;;;;;25.00;12.70;;;8.40;99.90;;;;;;5097192;28;20685;-87
2023/02/22 00:12:17;;;;;;;29.03;14.10;;;8.40;99.90;;;;;;5098125;28;20692;-86
2023/02/22 00:14:43;;;;;;;30.03;13.73;;;8.30;99.90;;;;;;5097195;28;20206;-88
2023/02/22 00:17:12;;;;;;;27.60;13.00;;;8.40;99.90;;;;;;5098812;28;20205;-87
2023/02/22 00:19:39;;;;;;;25.57;11.77;;;8.40;99.90;;;;;;5099505;28;20213;-88
2023/02/22 00:22:05;;;;;;;27.80;12.77;;;8.40;99.90;;;;;;5098582;28;20205;-87
2023/02/22 00:24:34;;;;;;;27.10;13.07;;;8.50;99.90;;;;;;5099590;28;20227;-88
2023/02/22 00:27:02;;;;;;;27.57;12.63;;;8.50;99.90;;;;;;5099107;28;20198;-87
2023/02/22 00:29:29;;;;;;;25.87;11.47;;;8.50;99.90;;;;;;5100702;28;20201;-89
2023/02/22 00:31:56;;;;;;;28.70;12.80;;;8.50;99.90;;;;;;5100879;28;20214;-88
2023/02/22 00:34:23;;;;;;;26.93;12.57;;;8.50;99.90;;;;;;5099068;28;20214;-86
2023/02/22 00:36:50;;;;;;;24.03;11.60;;;8.50;99.90;;;;;;5098525;28;20251;-86
2023/02/22 00:39:17;;;;;;;22.37;10.73;;;8.50;99.90;;;;;;5098017;28;20584;-86
2023/02/22 00:41:45;;;;;;;25.67;11.93;;;8.50;99.90;;;;;;5098579;28;20211;-87
2023/02/22 00:44:12;;;;;;;25.50;11.77;;;8.50;99.90;;;;;;5098505;28;20714;-87
2023/02/22 00:46:39;;;;;;;23.03;12.00;;;8.50;99.90;;;;;;5099037;28;20206;-87
2023/02/22 00:49:06;;;;;;;24.83;11.70;;;8.50;99.90;;;;;;5098143;28;20560;-87
2023/02/22 00:51:33;;;;;;;25.70;12.07;;;8.50;99.90;;;;;;5097503;28;20194;-86
2023/02/22 00:54:00;;;;;;;26.10;11.80;;;8.40;99.90;;;;;;5098444;28;20247;-86
2023/02/22 00:56:27;;;;;;;23.77;11.37;;;8.40;99.90;;;;;;5098029;28;20205;-88
2023/02/22 00:58:55;;;;;;;24.77;11.30;;;8.40;99.90;;;;;;5098381;28;20209;-87
2023/02/22 01:01:22;;;;;;;26.47;11.53;;;8.40;99.90;;;;;;5099126;28;20204;-87
2023/02/22 01:03:49;;;;;;;27.40;11.87;;;8.40;99.90;;;;;;5098456;28;20312;-87
2023/02/22 01:06:16;;;;;;;25.73;11.93;;;8.40;99.90;;;;;;5098888;28;20208;-87
2023/02/22 01:08:44;;;;;;;25.10;11.60;;;8.40;99.90;;;;;;5098534;28;20204;-87
2023/02/22 01:11:12;;;;;;;26.50;12.67;;;8.40;99.90;;;;;;5098881;28;20201;-87
2023/02/22 01:13:38;;;;;;;25.47;12.40;;;8.40;99.90;;;;;;5098461;28;20228;-87
2023/02/22 01:16:08;;;;;;;26.63;13.40;;;8.40;99.90;;;;;;5098859;28;20209;-87
2023/02/22 01:18:35;;;;;;;23.80;11.23;;;8.40;99.90;;;;;;5098699;28;20204;-87
2023/02/22 01:21:02;;;;;;;24.37;11.23;;;8.40;99.90;;;;;;5083569;28;20218;-87
2023/02/22 01:23:28;;;;;;;25.40;11.40;;;8.30;99.90;;;;;;5080537;28;20217;-87
2023/02/22 01:25:55;;;;;;;23.60;10.50;;;8.30;99.90;;;;;;5100518;28;20205;-86
2023/02/22 01:28:22;;;;;;;25.73;12.23;;;8.20;99.90;;;;;;5099938;28;20297;-86
2023/02/22 01:30:49;;;;;;;24.67;11.20;;;8.30;99.90;;;;;;5099656;28;20571;-87
2023/02/22 01:33:18;;;;;;;24.33;10.73;;;8.00;99.90;;;;;;5096222;28;20579;-87
2023/02/22 01:35:45;;;;;;;19.13;8.90;;;7.90;99.90;;;;;;5108581;28;20220;-87
2023/02/22 01:38:12;;;;;;;20.73;8.97;;;8.20;99.90;;;;;;5086225;28;20190;-88
2023/02/22 01:40:42;;;;;;;21.23;10.07;;;8.00;99.90;;;;;;5096764;28;20643;-88
2023/02/22 01:43:17;;;;;;;20.07;9.57;;;7.80;99.90;;;;;;5099028;28;20200;-88
2023/02/22 01:46:00;;;;;;;21.70;9.40;;;7.70;99.90;;;;;;5101369;22;20240;-89
2023/02/22 01:48:33;;;;;;;21.27;10.17;;;7.50;99.90;;;;;;5071623;28;20652;-88
2023/02/22 01:51:09;;;;;;;17.97;8.80;;;7.40;99.90;;;;;;5062018;28;20201;-88
2023/02/22 01:53:39;;;;;;;21.70;9.87;;;7.50;99.90;;;;;;5074613;28;20203;-88
2023/02/22 01:56:07;;;;;;;22.70;9.60;;;7.30;99.90;;;;;;5055971;28;20746;-88
2023/02/22 01:58:37;;;;;;;22.27;9.33;;;7.30;99.90;;;;;;5056581;28;20210;-89
2023/02/22 02:01:07;;;;;;;18.87;9.03;;;7.20;99.90;;;;;;5056443;28;20301;-87
2023/02/22 02:03:38;;;;;;;21.53;8.97;;;7.10;99.90;;;;;;5056336;28;20244;-88
2023/02/22 02:06:10;;;;;;;17.43;8.17;;;7.00;99.90;;;;;;5057004;28;20230;-88
2023/02/22 02:08:48;;;;;;;21.90;8.37;;;7.00;99.90;;;;;;5060108;28;20195;-88
2023/02/22 02:11:18;;;;;;;20.57;7.97;;;6.90;99.90;;;;;;5073859;28;20584;-88
2023/02/22 02:13:45;;;;;;;20.40;8.70;;;6.90;99.90;;;;;;5058666;28;20576;-88
2023/02/22 02:16:13;;;;;;;15.07;7.77;;;6.70;99.90;;;;;;5066023;28;20213;-88
2023/02/22 02:18:41;;;;;;;18.30;8.50;;;6.70;99.90;;;;;;5074482;28;20198;-88
2023/02/22 02:21:39;;;;;;;19.17;8.63;;;6.70;99.90;;;;;;5073328;28;20429;-88
2023/02/22 02:24:51;;;;;;;18.43;7.90;;;6.60;99.90;;;;;;5057428;28;20273;-88
2023/02/22 02:27:20;;;;;;;18.17;7.57;;;6.70;99.90;;;;;;5064060;28;20213;-89
2023/02/22 02:30:28;;;;;;;15.77;7.23;;;6.50;99.90;;;;;;5073923;28;20202;-88
2023/02/22 02:32:59;;;;;;;16.07;6.83;;;6.20;99.90;;;;;;5073999;28;20210;-89
2023/02/22 02:35:35;;;;;;;16.37;7.50;;;6.20;99.90;;;;;;5064580;28;20226;-88
2023/02/22 02:38:10;;;;;;;17.33;8.10;;;6.20;99.90;;;;;;5085639;28;20242;-89
2023/02/22 02:40:41;;;;;;;17.70;8.60;;;6.10;99.90;;;;;;5097954;28;20237;-90
2023/02/22 02:43:17;;;;;;;16.77;8.70;;;6.10;99.90;;;;;;5085549;28;20206;-88
2023/02/22 02:45:49;;;;;;;19.20;8.60;;;6.00;99.90;;;;;;5075422;28;20247;-89
2023/02/22 02:48:23;;;;;;;15.23;7.43;;;5.90;99.90;;;;;;5067853;28;20207;-89
2023/02/22 02:50:51;;;;;;;17.17;7.40;;;5.90;99.90;;;;;;5056631;28;20205;-88
2023/02/22 02:53:21;;;;;;;20.20;8.97;;;5.80;99.90;;;;;;5073908;28;20642;-88
2023/02/22 02:55:48;;;;;;;14.77;7.00;;;5.80;99.90;;;;;;5055775;28;20233;-89
2023/02/22 02:58:19;;;;;;;20.53;8.70;;;5.80;99.90;;;;;;5055273;28;20289;-89
2023/02/22 03:00:47;;;;;;;19.87;9.07;;;5.80;99.90;;;;;;5068183;28;20218;-89
2023/02/22 03:03:54;;;;;;;19.47;8.23;;;5.80;99.90;;;;;;5062366;28;20686;-88
2023/02/22 03:06:50;;;;;;;19.17;8.37;;;5.80;99.90;;;;;;5071157;28;20202;-88
2023/02/22 03:09:28;;;;;;;19.47;8.33;;;5.60;99.90;;;;;;5066415;28;20390;-89
2023/02/22 03:12:07;;;;;;;17.70;8.00;;;5.50;99.90;;;;;;5060258;28;20719;-89
2023/02/22 03:14:41;;;;;;;18.27;8.07;;;5.30;99.90;;;;;;5073454;28;20225;-89
2023/02/22 03:17:17;;;;;;;18.97;8.63;;;5.60;99.90;;;;;;5055639;28;20207;-88
2023/02/22 03:19:50;;;;;;;17.97;8.27;;;5.60;99.90;;;;;;5065224;28;20225;-89
2023/02/22 03:22:22;;;;;;;18.47;8.67;;;5.50;99.90;;;;;;5065842;28;20546;-89
2023/02/22 03:24:54;;;;;;;20.30;8.97;;;5.40;99.90;;;;;;5071114;28;20296;-89
2023/02/22 03:27:27;;;;;;;21.00;9.00;;;5.30;99.90;;;;;;5074734;28;20209;-89
2023/02/22 03:29:59;;;;;;;22.50;8.13;;;5.40;99.90;;;;;;5071479;28;20947;-89
2023/02/22 03:32:31;;;;;;;19.90;8.70;;;5.40;99.90;;;;;;5062350;28;20574;-89
2023/02/22 03:35:06;;;;;;;32.23;16.63;;;5.40;99.90;;;;;;5073242;28;20229;-89
2023/02/22 03:37:38;;;;;;;23.77;10.60;;;5.50;99.90;;;;;;5067316;28;20210;-89
2023/02/22 03:40:12;;;;;;;23.37;11.13;;;5.60;99.90;;;;;;5062356;28;20226;-89
2023/02/22 03:42:43;;;;;;;19.53;7.97;;;5.60;99.90;;;;;;5065380;28;20202;-89
2023/02/22 03:45:14;;;;;;;18.97;7.73;;;5.60;99.90;;;;;;5068019;28;20237;-90
2023/02/22 03:47:45;;;;;;;19.27;7.97;;;5.50;99.90;;;;;;5066399;28;20706;-88
2023/02/22 03:50:18;;;;;;;16.60;7.80;;;5.50;99.90;;;;;;5067656;28;20282;-87
2023/02/22 03:52:47;;;;;;;16.90;6.87;;;5.60;99.90;;;;;;5056397;28;20202;-88
2023/02/22 03:55:16;;;;;;;18.77;7.90;;;5.70;99.90;;;;;;5062874;28;20219;-89
2023/02/22 03:57:48;;;;;;;18.83;7.87;;;5.90;99.90;;;;;;5053901;28;20233;-91
2023/02/22 04:00:19;;;;;;;19.70;8.67;;;6.00;99.90;;;;;;5055547;28;20306;-88
2023/02/22 04:02:46;;;;;;;23.93;9.87;;;6.20;99.90;;;;;;5055124;28;20199;-89
2023/02/22 04:05:14;;;;;;;19.40;8.43;;;6.30;99.90;;;;;;5062188;28;20221;-90
2023/02/22 04:07:41;;;;;;;20.20;8.73;;;6.40;99.90;;;;;;5063509;28;20232;-92
2023/02/22 04:10:09;;;;;;;21.33;9.30;;;6.50;99.90;;;;;;5061419;28;20300;-89
2023/02/22 04:12:36;;;;;;;25.27;10.10;;;6.50;99.90;;;;;;5057756;28;20213;-90
2023/02/22 04:15:05;;;;;;;23.57;11.23;;;6.90;99.90;;;;;;5062678;28;20234;-90
2023/02/22 04:17:32;;;;;;;23.33;10.27;;;6.80;99.90;;;;;;5069450;28;20209;-90
2023/02/22 04:19:59;;;;;;;24.07;11.67;;;6.90;99.90;;;;;;5070794;28;20222;-90
2023/02/22 04:22:28;;;;;;;24.70;10.83;;;7.00;99.90;;;;;;5065338;28;20214;-89
2023/02/22 04:24:55;;;;;;;24.10;11.37;;;7.00;99.90;;;;;;5062477;28;20254;-90
2023/02/22 04:27:21;;;;;;;23.87;10.77;;;6.90;99.90;;;;;;5053231;28;20209;-90
2023/02/22 04:29:48;;;;;;;25.67;11.93;;;7.00;99.90;;;;;;5068562;28;20207;-90
2023/02/22 04:32:15;;;;;;;26.97;12.17;;;6.90;99.90;;;;;;5057609;28;20660;-89
2023/02/22 04:34:42;;;;;;;27.10;11.63;;;6.90;99.90;;;;;;5067242;28;20222;-90
2023/02/22 04:37:09;;;;;;;21.47;9.83;;;7.00;99.90;;;;;;5062909;28;20690;-90
2023/02/22 04:39:38;;;;;;;21.60;9.57;;;7.00;99.90;;;;;;5051893;28;20293;-90
2023/02/22 04:42:05;;;;;;;25.30;14.63;;;6.90;99.90;;;;;;5051443;28;20227;-90
2023/02/22 04:44:32;;;;;;;24.30;11.83;;;6.90;99.90;;;;;;5053240;28;20595;-89
2023/02/22 04:46:58;;;;;;;27.23;11.50;;;6.80;99.90;;;;;;5053082;28;20218;-90
2023/02/22 04:49:25;;;;;;;25.10;10.47;;;6.90;99.90;;;;;;5052950;28;20206;-89
2023/02/22 04:51:52;;;;;;;24.33;11.10;;;7.00;99.90;;;;;;5053169;28;20207;-90
2023/02/22 04:54:19;;;;;;;22.03;10.03;;;7.00;99.90;;;;;;5053184;28;20241;-90
2023/02/22 04:56:47;;;;;;;22.23;10.87;;;7.00;99.90;;;;;;5053085;28;20225;-90
2023/02/22 04:59:14;;;;;;;22.60;10.87;;;7.10;99.90;;;;;;5052974;28;20660;-89
2023/02/22 05:01:41;;;;;;;23.00;10.80;;;7.10;99.90;;;;;;5052772;28;20707;-90
2023/02/22 05:04:08;;;;;;;23.67;10.90;;;7.00;99.90;;;;;;5052557;28;20230;-90
2023/02/22 05:06:34;;;;;;;26.77;11.77;;;7.10;99.90;;;;;;5052859;28;20214;-90
2023/02/22 05:09:01;;;;;;;27.17;10.00;;;7.00;99.90;;;;;;5052839;28;20211;-89
2023/02/22 05:11:28;;;;;;;23.07;10.27;;;7.00;99.90;;;;;;5052611;28;20207;-90
2023/02/22 05:13:57;;;;;;;22.13;10.43;;;7.00;99.90;;;;;;5052516;28;20266;-89
2023/02/22 05:16:23;;;;;;;23.83;11.07;;;7.00;99.90;;;;;;5052603;28;20207;-89
2023/02/22 05:18:50;;;;;;;25.67;10.50;;;7.00;99.90;;;;;;5052572;28;20210;-90
2023/02/22 05:21:17;;;;;;;22.00;10.27;;;7.10;99.90;;;;;;5052242;28;20223;-90
2023/02/22 05:23:44;;;;;;;23.47;10.63;;;7.10;99.90;;;;;;5052344;28;20209;-89
2023/02/22 05:26:11;;;;;;;24.80;11.63;;;7.10;99.90;;;;;;5052255;28;20202;-90
2023/02/22 05:28:37;;;;;;;22.40;11.13;;;7.00;99.90;;;;;;5052386;28;20207;-90
2023/02/22 05:31:06;;;;;;;22.67;10.67;;;7.00;99.90;;;;;;5052588;28;20203;-89
2023/02/22 05:33:33;;;;;;;23.20;10.47;;;7.10;99.90;;;;;;5052252;28;20233;-89
2023/02/22 05:36:01;;;;;;;22.17;10.27;;;7.00;99.90;;;;;;5052840;28;20242;-90
2023/02/22 05:38:28;;;;;;;25.40;10.50;;;7.00;99.90;;;;;;5052312;28;20305;-90
2023/02/22 05:40:55;;;;;;;22.70;9.57;;;7.00;99.90;;;;;;5052415;28;20688;-90
2023/02/22 05:43:22;;;;;;;24.80;10.77;;;7.10;99.90;;;;;;5052370;28;20211;-90
2023/02/22 05:45:49;;;;;;;24.40;11.07;;;7.10;99.90;;;;;;5052087;28;20235;-90
2023/02/22 05:48:17;;;;;;;24.07;10.70;;;7.10;99.90;;;;;;5052288;28;20201;-91
2023/02/22 05:50:44;;;;;;;27.03;11.23;;;7.20;99.90;;;;;;5052456;28;20228;-90
2023/02/22 05:53:11;;;;;;;23.77;9.90;;;7.20;99.90;;;;;;5052214;28;20207;-89
2023/02/22 05:55:37;;;;;;;25.40;9.93;;;7.40;99.90;;;;;;5061112;28;20219;-91
2023/02/22 05:58:04;;;;;;;21.13;9.23;;;7.30;99.90;;;;;;5072932;28;20234;-90
2023/02/22 06:00:32;;;;;;;23.67;10.70;;;7.30;99.90;;;;;;5058980;28;20223;-89
2023/02/22 06:03:01;;;;;;;23.40;10.03;;;7.30;99.90;;;;;;5051871;28;20265;-91
2023/02/22 06:05:30;;;;;;;23.03;10.10;;;7.40;99.90;;;;;;5052192;28;20231;-90
2023/02/22 06:07:57;;;;;;;22.97;10.20;;;7.30;99.90;;;;;;5052219;28;20211;-90
2023/02/22 06:10:25;;;;;;;22.40;10.00;;;7.30;99.90;;;;;;5051971;28;20203;-90
2023/02/22 06:12:53;;;;;;;23.43;10.73;;;7.20;99.90;;;;;;5051534;28;20205;-90
2023/02/22 06:15:22;;;;;;;23.93;11.00;;;7.20;99.90;;;;;;5052066;28;20226;-89
2023/02/22 06:17:49;;;;;;;23.13;9.50;;;7.30;99.90;;;;;;5056515;28;20213;-90
2023/02/22 06:20:18;;;;;;;20.57;9.17;;;7.30;99.90;;;;;;5055382;28;20206;-89
2023/02/22 06:22:49;;;;;;;21.70;9.83;;;7.30;99.90;;;;;;5073609;28;20210;-90
2023/02/22 06:25:17;;;;;;;22.73;10.23;;;7.30;99.90;;;;;;5090988;28;20218;-89
2023/02/22 06:27:43;;;;;;;22.07;9.30;;;7.30;99.90;;;;;;5076498;28;20210;-89
2023/02/22 06:30:11;;;;;;;24.30;10.67;;;7.30;99.90;;;;;;5057772;28;20213;-89
2023/02/22 06:32:38;;;;;;;22.33;9.87;;;7.30;99.90;;;;;;5070137;28;20210;-90
2023/02/22 06:35:06;;;;;;;21.23;9.10;;;7.30;99.90;;;;;;5085358;28;20224;-89
2023/02/22 06:37:32;;;;;;;25.27;9.30;;;7.20;99.90;;;;;;5085880;28;20213;-90
2023/02/22 06:40:01;;;;;;;18.00;8.40;;;7.10;99.90;;;;;;5087219;28;20201;-89
2023/02/22 06:42:28;;;;;;;20.90;8.43;;;7.10;99.90;;;;;;5082942;28;20225;-89
2023/02/22 06:44:54;;;;;;;20.10;8.10;;;7.20;99.90;;;;;;5062188;28;20606;-89
2023/02/22 06:47:21;;;;;;;25.10;9.63;;;7.10;99.90;;;;;;5062136;28;20651;-89
2023/02/22 06:49:53;;;;;;;21.10;9.43;;;7.10;99.90;;;;;;5065458;28;20213;-89
2023/02/22 06:52:20;;;;;;;18.30;8.43;;;7.10;99.90;;;;;;5066905;28;20264;-89
2023/02/22 06:54:49;;;;;;;18.03;8.67;;;7.00;99.90;;;;;;5054870;28;20237;-89
2023/02/22 06:57:17;;;;;;;17.63;8.50;;;7.20;99.90;;;;;;5064683;28;20659;-90
2023/02/22 06:59:45;;;;;;;19.50;7.77;;;7.20;99.90;;;;;;5074791;28;20667;-89
2023/02/22 07:02:12;;;;;;;19.40;8.40;;;7.30;99.90;;;;;;5073616;28;20240;-90
2023/02/22 07:04:39;;;;;;;19.80;8.90;;;7.30;99.90;;;;;;5074711;28;20249;-89
2023/02/22 07:07:06;;;;;;;18.87;8.13;;;7.30;99.90;;;;;;5073682;28;20202;-89
2023/02/22 07:09:33;;;;;;;19.67;8.73;;;7.20;99.90;;;;;;5073991;28;20205;-90
2023/02/22 07:12:00;;;;;;;22.67;9.70;;;7.20;99.90;;;;;;5068639;28;20679;-89
2023/02/22 07:14:28;;;;;;;19.93;8.73;;;7.20;99.90;;;;;;5062930;28;20729;-90
2023/02/22 07:16:55;;;;;;;26.20;9.33;;;7.20;99.90;;;;;;5066796;28;20213;-89
2023/02/22 07:19:23;;;;;;;19.27;9.03;;;7.20;99.90;;;;;;5054174;28;20217;-89
2023/02/22 07:21:54;;;;;;;21.47;9.20;;;7.30;99.90;;;;;;5054172;28;20223;-89
2023/02/22 07:24:22;;;;;;;21.80;9.67;;;7.20;99.90;;;;;;5053064;28;20219;-90
2023/02/22 07:26:49;;;;;;;19.90;8.73;;;7.30;99.90;;;;;;5054058;28;20214;-89
2023/02/22 07:29:16;;;;;;;19.97;9.30;;;7.20;99.90;;;;;;5054446;28;20746;-89
2023/02/22 07:31:44;;;;;;;19.10;9.63;;;7.30;99.90;;;;;;5053705;28;20210;-89
2023/02/22 07:34:13;;;;;;;22.87;9.77;;;7.50;99.90;;;;;;5052636;28;20233;-89
2023/02/22 07:36:39;;;;;;;20.17;9.33;;;7.60;99.90;;;;;;5054135;28;20217;-89
2023/02/22 07:39:07;;;;;;;20.13;9.10;;;7.60;99.90;;;;;;5073707;28;20217;-89
2023/02/22 07:41:34;;;;;;;20.37;9.27;;;7.70;99.90;;;;;;5067864;28;20226;-89
2023/02/22 07:44:01;;;;;;;19.63;8.17;;;7.70;99.90;;;;;;5071353;28;20209;-89
2023/02/22 07:46:28;;;;;;;20.53;9.60;;;8.00;99.90;;;;;;5064589;28;20672;-89
2023/02/22 07:48:56;;;;;;;23.63;9.60;;;8.00;99.90;;;;;;5065885;28;20225;-89
2023/02/22 07:51:23;;;;;;;20.77;8.60;;;8.20;99.90;;;;;;5072299;28;20206;-89
2023/02/22 07:53:50;;;;;;;18.50;9.17;;;8.30;99.90;;;;;;5072133;28;20202;-89
2023/02/22 07:56:20;;;;;;;23.27;10.97;;;8.40;99.90;;;;;;5070769;28;20206;-90
2023/02/22 07:58:49;;;;;;;17.77;9.23;;;8.70;99.90;;;;;;5053093;28;20226;-89
2023/02/22 08:01:20;;;;;;;25.00;10.57;;;8.80;99.90;;;;;;5052583;28;20600;-90
2023/02/22 08:03:57;;;;;;;21.20;9.73;;;9.10;99.90;;;;;;5057823;28;20210;-88
2023/02/22 08:06:27;;;;;;;20.53;9.30;;;9.30;99.90;;;;;;5073915;28;20224;-89
2023/02/22 08:08:56;;;;;;;22.43;11.37;;;9.40;99.90;;;;;;5072858;28;20631;-89
2023/02/22 08:11:24;;;;;;;21.20;10.47;;;9.60;99.90;;;;;;5072773;28;20288;-89
2023/02/22 08:13:51;;;;;;;22.27;10.67;;;9.60;99.90;;;;;;5072944;28;20224;-89
2023/02/22 08:16:18;;;;;;;22.43;11.40;;;9.90;99.90;;;;;;5072622;28;20219;-90
2023/02/22 08:18:45;;;;;;;22.67;11.10;;;10.10;99.90;;;;;;5072125;28;20210;-89
2023/02/22 08:21:11;;;;;;;20.47;11.00;;;10.50;99.90;;;;;;5072039;28;20733;-89
2023/02/22 08:23:39;;;;;;;22.30;9.83;;;11.20;99.90;;;;;;5073183;28;20213;-91
2023/02/22 08:26:08;;;;;;;24.17;10.33;;;11.70;99.90;;;;;;5072430;28;20230;-90
2023/02/22 08:28:35;;;;;;;22.63;9.80;;;11.50;99.90;;;;;;5073194;28;20672;-89
2023/02/22 08:31:02;;;;;;;19.80;10.20;;;11.20;99.90;;;;;;5067771;28;20211;-90
2023/02/22 08:33:29;;;;;;;21.43;11.73;;;10.90;99.90;;;;;;5070243;28;20207;-90
2023/02/22 08:35:56;;;;;;;19.63;10.93;;;10.90;99.90;;;;;;5072560;28;20226;-89
2023/02/22 08:38:26;;;;;;;19.47;10.50;;;11.90;99.90;;;;;;5054662;28;20211;-90
2023/02/22 08:40:55;;;;;;;22.07;10.87;;;11.40;99.90;;;;;;5052517;28;20203;-89
2023/02/22 08:43:22;;;;;;;20.40;11.00;;;11.20;99.90;;;;;;5052432;28;20234;-90
2023/02/22 08:45:50;;;;;;;21.07;10.50;;;11.80;99.90;;;;;;5052901;28;20307;-89
2023/02/22 08:48:17;;;;;;;21.43;11.20;;;11.80;99.90;;;;;;5051527;28;20242;-90
2023/02/22 08:50:45;;;;;;;19.60;10.20;;;12.00;99.90;;;;;;5051999;28;20206;-89
2023/02/22 08:53:13;;;;;;;19.87;10.63;;;11.80;99.90;;;;;;5052642;28;20286;-89
2023/02/22 08:55:41;;;;;;;20.23;11.20;;;11.70;99.90;;;;;;5051528;28;20219;-90
2023/02/22 08:58:10;;;;;;;21.17;11.10;;;11.40;99.90;;;;;;5052331;28;20198;-89
2023/02/22 09:00:39;;;;;;;20.43;10.83;;;11.60;99.90;;;;;;5051960;28;20215;-89
2023/02/22 09:03:07;;;;;;;21.00;10.70;;;11.80;99.90;;;;;;5051233;28;20237;-90
2023/02/22 09:05:34;;;;;;;19.40;10.60;;;11.80;99.90;;;;;;5053433;28;20222;-90
2023/02/22 09:08:01;;;;;;;18.73;10.27;;;12.30;99.90;;;;;;5064215;28;20200;-89
2023/02/22 09:10:29;;;;;;;19.73;10.37;;;12.40;99.90;;;;;;5067863;28;20207;-89
2023/02/22 09:12:57;;;;;;;20.73;10.37;;;12.50;99.90;;;;;;5080860;28;20208;-90
2023/02/22 09:15:25;;;;;;;19.90;10.57;;;13.00;99.90;;;;;;5072546;28;20218;-89
2023/02/22 09:17:52;;;;;;;18.83;11.70;;;12.90;99.90;;;;;;5058046;28;20215;-89
2023/02/22 09:20:22;;;;;;;19.90;10.43;;;12.70;99.90;;;;;;5051859;28;20191;-90
2023/02/22 09:22:50;;;;;;;18.37;10.00;;;12.80;99.90;;;;;;5051037;28;20237;-89
2023/02/22 09:25:19;;;;;;;19.83;10.43;;;12.70;99.90;;;;;;5051370;28;20226;-89
2023/02/22 09:27:47;;;;;;;21.00;11.13;;;12.70;99.90;;;;;;5051481;28;20230;-90
2023/02/22 09:30:22;;;;;;;21.53;10.70;;;12.90;99.90;;;;;;5051048;28;20668;-89
2023/02/22 09:32:51;;;;;;;17.40;10.30;;;12.70;99.90;;;;;;5058258;28;20198;-89
2023/02/22 09:35:18;;;;;;;21.60;11.33;;;12.70;99.90;;;;;;5062860;28;20265;-90
2023/02/22 09:37:45;;;;;;;18.77;10.80;;;12.60;99.90;;;;;;5060398;28;20547;-90
2023/02/22 09:40:23;;;;;;;19.90;10.77;;;12.70;99.90;;;;;;5071493;28;20210;-89
2023/02/22 09:43:06;;;;;;;17.57;9.70;;;12.70;99.90;;;;;;5057868;28;20231;-89
2023/02/22 09:45:37;;;;;;;17.70;10.03;;;12.70;99.90;;;;;;5051272;28;20809;-90
2023/02/22 09:48:07;;;;;;;19.67;10.60;;;12.70;99.90;;;;;;5051505;28;20210;-88
2023/02/22 09:50:37;;;;;;;19.20;10.43;;;12.80;99.90;;;;;;5052218;28;20209;-89
2023/02/22 09:53:07;;;;;;;20.67;11.83;;;12.80;99.90;;;;;;5051398;28;20207;-90
2023/02/22 09:55:40;;;;;;;19.97;10.13;;;12.70;99.90;;;;;;5051601;28;20230;-90
2023/02/22 09:58:14;;;;;;;18.60;10.47;;;12.20;99.90;;;;;;5059835;28;20206;-90
2023/02/22 10:00:42;;;;;;;20.80;10.60;;;12.30;99.90;;;;;;5061648;28;20209;-90
2023/02/22 10:03:20;;;;;;;20.23;9.97;;;12.60;99.90;;;;;;5054216;28;20616;-90
2023/02/22 10:05:55;;;;;;;18.93;10.93;;;12.50;99.90;;;;;;5066741;28;20764;-90
2023/02/22 10:08:24;;;;;;;19.57;10.20;;;12.30;99.90;;;;;;5071662;28;20637;-89
2023/02/22 10:11:02;;;;;;;19.27;11.23;;;12.70;99.90;;;;;;5072049;28;20210;-90
2023/02/22 10:13:36;;;;;;;19.00;11.20;;;13.00;99.90;;;;;;5074723;28;20198;-91
2023/02/22 10:16:10;;;;;;;20.60;11.67;;;12.80;99.90;;;;;;5075775;28;20257;-91
2023/02/22 10:19:07;;;;;;;20.87;11.63;;;12.90;99.90;;;;;;5075339;28;20263;-90
2023/02/22 10:21:51;;;;;;;19.97;11.40;;;13.20;99.90;;;;;;5075689;28;20210;-89
2023/02/22 10:24:37;;;;;;;20.07;11.00;;;13.50;99.90;;;;;;5075419;28;20237;-90
2023/02/22 10:27:06;;;;;;;19.30;10.53;;;13.70;99.90;;;;;;5075424;28;20210;-90
2023/02/22 10:29:39;;;;;;;20.50;10.30;;;13.30;99.90;;;;;;5075617;28;20248;-90
2023/02/22 10:32:12;;;;;;;18.47;10.97;;;13.40;99.90;;;;;;5074907;28;20260;-90
2023/02/22 10:34:47;;;;;;;21.47;11.60;;;13.40;99.90;;;;;;5074442;28;20301;-90
2023/02/22 10:37:24;;;;;;;17.53;10.33;;;13.80;99.90;;;;;;5075148;28;20259;-90
2023/02/22 10:39:53;;;;;;;19.43;10.57;;;13.90;99.90;;;;;;5066887;28;20206;-89
2023/02/22 10:42:25;;;;;;;17.10;9.93;;;13.50;99.90;;;;;;5073518;28;20237;-91
2023/02/22 10:44:51;;;;;;;16.97;10.10;;;13.80;99.90;;;;;;5075067;28;20234;-89
2023/02/22 10:47:20;;;;;;;21.63;11.53;;;13.90;99.90;;;;;;5075537;28;20198;-90
2023/02/22 10:49:52;;;;;;;18.87;11.17;;;13.80;99.90;;;;;;5075129;28;20206;-90
2023/02/22 10:52:24;;;;;;;22.17;12.00;;;13.50;99.90;;;;;;5074844;28;20667;-90
2023/02/22 10:54:54;;;;;;;18.20;10.90;;;13.70;99.90;;;;;;5074843;28;20699;-90
2023/02/22 10:57:24;;;;;;;18.37;10.30;;;13.90;99.90;;;;;;5075110;28;20206;-89
2023/02/22 10:59:51;;;;;;;20.87;12.00;;;14.10;99.90;;;;;;5075332;28;20562;-90
2023/02/22 11:02:20;;;;;;;19.90;11.43;;;13.80;99.90;;;;;;5074806;28;20218;-90
2023/02/22 11:04:51;;;;;;;19.70;11.73;;;14.10;99.90;;;;;;5075385;28;20340;-91
2023/02/22 11:07:22;;;;;;;21.17;11.57;;;14.30;99.90;;;;;;5075215;28;20202;-90
2023/02/22 11:09:51;;;;;;;17.57;10.90;;;14.30;99.90;;;;;;5074898;28;20206;-90
2023/02/22 11:12:21;;;;;;;19.70;11.33;;;14.20;99.90;;;;;;5075059;28;20212;-89
2023/02/22 11:14:48;;;;;;;19.45;10.68;;;14.30;99.90;;;;;;5074764;28;20731;-90
2023/02/22 11:17:22;;;;;;;19.27;10.70;;;14.50;99.90;;;;;;5074897;28;20206;-90
2023/02/22 11:19:51;;;;;;;19.40;10.93;;;14.50;99.90;;;;;;5074807;28;20205;-90
2023/02/22 11:22:24;;;;;;;19.20;10.60;;;14.40;99.90;;;;;;5073931;28;20222;-90
2023/02/22 11:24:56;;;;;;;19.63;10.77;;;14.50;99.90;;;;;;5074083;28;20222;-90
2023/02/22 11:27:31;;;;;;;20.33;10.70;;;14.50;99.90;;;;;;5074885;28;20228;-90
2023/02/22 11:30:12;;;;;;;18.73;10.50;;;14.20;99.90;;;;;;5074340;28;20201;-90
2023/02/22 11:32:46;;;;;;;16.23;10.20;;;14.80;99.90;;;;;;5076178;28;20210;-89
2023/02/22 11:35:38;;;;;;;17.03;10.07;;;15.10;99.90;;;;;;5077198;28;20226;-90
2023/02/22 11:38:17;;;;;;;17.83;10.53;;;15.00;99.90;;;;;;5074789;28;20202;-91
2023/02/22 11:40:44;;;;;;;15.67;8.53;;;15.10;99.90;;;;;;5073975;28;20210;-90
2023/02/22 11:43:16;;;;;;;15.87;8.50;;;15.30;99.90;;;;;;5073167;28;20690;-90
2023/02/22 11:46:01;;;;;;;13.40;8.25;;;15.40;99.90;;;;;;5056748;28;20273;-89
2023/02/22 11:48:30;;;;;;;13.50;7.95;;;14.70;99.90;;;;;;5062202;28;20202;-90
2023/02/22 11:51:15;;;;;;;14.73;8.70;;;14.90;99.90;;;;;;5062754;28;20211;-90
2023/02/22 11:54:11;;;;;;;15.98;9.15;;;14.80;99.90;;;;;;5054401;28;20211;-90
2023/02/22 11:56:42;;;;;;;15.63;8.15;;;14.80;99.90;;;;;;5055021;28;20205;-89
2023/02/22 11:59:22;;;;;;;18.23;9.80;;;14.80;99.90;;;;;;5054662;28;20238;-89
2023/02/22 12:01:53;;;;;;;17.23;9.38;;;15.00;99.90;;;;;;5054345;28;20210;-90
2023/02/22 12:04:48;;;;;;;14.07;8.32;;;15.00;99.90;;;;;;5053873;28;20237;-89
2023/02/22 12:07:30;;;;;;;11.65;7.68;;;14.80;99.90;;;;;;5054035;28;20215;-90
2023/02/22 12:10:05;;;;;;;12.30;7.82;;;14.70;99.90;;;;;;5053954;28;20205;-90
2023/02/22 12:12:40;;;;;;;12.63;7.93;;;14.80;99.90;;;;;;5053442;28;20199;-89
2023/02/22 12:15:16;;;;;;;14.57;8.30;;;15.00;99.90;;;;;;5054155;28;20301;-90
2023/02/22 12:17:52;;;;;;;12.68;7.78;;;15.10;99.90;;;;;;5056284;28;20206;-90
2023/02/22 12:20:24;;;;;;;12.70;7.05;;;15.40;99.90;;;;;;5073304;28;20235;-89
2023/02/22 12:23:02;;;;;;;10.68;6.97;;;15.50;99.90;;;;;;5072423;28;20368;-90
2023/02/22 12:25:34;;;;;;;12.82;7.50;;;15.40;99.90;;;;;;5069690;28;20297;-90
2023/02/22 12:28:18;;;;;;;15.02;8.68;;;15.40;99.90;;;;;;5064373;28;20206;-91
2023/02/22 12:30:52;;;;;;;11.32;6.57;;;15.70;99.90;;;;;;5064194;28;20223;-90
2023/02/22 12:33:25;;;;;;;11.75;6.88;;;15.60;99.90;;;;;;5070451;28;20275;-89
2023/02/22 12:35:55;;;;;;;11.13;6.53;;;15.60;99.90;;;;;;5065250;28;20218;-90
2023/02/22 12:38:32;;;;;;;12.10;6.90;;;15.90;99.90;;;;;;5056695;28;20634;-88
2023/02/22 12:41:06;;;;;;;12.13;6.85;;;16.00;99.90;;;;;;5053069;28;20206;-88
2023/02/22 12:43:37;;;;;;;13.13;6.80;;;16.50;99.90;;;;;;5052275;28;20227;-91
2023/02/22 12:46:11;;;;;;;11.95;6.93;;;16.40;99.90;;;;;;5052338;28;20238;-90
2023/02/22 12:48:45;;;;;;;9.65;6.43;;;16.20;99.90;;;;;;5072088;28;20197;-89
2023/02/22 12:51:27;;;;;;;11.75;6.88;;;17.10;99.90;;;;;;5073682;28;20217;-90
2023/02/22 12:54:05;;;;;;;9.00;5.57;;;17.10;99.90;;;;;;5078263;28;20204;-90
2023/02/22 12:56:36;;;;;;;10.00;6.30;;;16.50;99.90;;;;;;5081707;28;20194;-88